sensor_id;sensor_type;location;lat;lon;timestamp;temperature;humidity
70734;DHT22;58320;48.804;9.252;2022-11-15T00:00:54;9.30;82.70
70734;DHT22;58320;48.804;9.252;2022-11-15T00:03:22;9.30;82.40
70734;DHT22;58320;48.804;9.252;2022-11-15T00:05:50;9.40;82.30
70734;DHT22;58320;48.804;9.252;2022-11-15T00:08:16;9.40;82.30
70734;DHT22;58320;48.804;9.252;2022-11-15T00:10:42;9.40;81.90
70734;DHT22;58320;48.804;9.252;2022-11-15T00:13:10;9.40;82.10
70734;DHT22;58320;48.804;9.252;2022-11-15T00:15:38;9.40;81.60
70734;DHT22;58320;48.804;9.252;2022-11-15T00:18:06;9.40;81.00
70734;DHT22;58320;48.804;9.252;2022-11-15T00:20:37;9.40;80.50
70734;DHT22;58320;48.804;9.252;2022-11-15T00:23:04;9.50;79.50
70734;DHT22;58320;48.804;9.252;2022-11-15T00:25:30;9.60;79.80
70734;DHT22;58320;48.804;9.252;2022-11-15T00:27:57;9.50;79.40
70734;DHT22;58320;48.804;9.252;2022-11-15T00:30:24;9.50;79.40
70734;DHT22;58320;48.804;9.252;2022-11-15T00:32:51;9.60;79.70
70734;DHT22;58320;48.804;9.252;2022-11-15T00:35:17;9.50;79.70
70734;DHT22;58320;48.804;9.252;2022-11-15T00:37:43;9.50;80.00
70734;DHT22;58320;48.804;9.252;2022-11-15T00:40:09;9.40;80.20
70734;DHT22;58320;48.804;9.252;2022-11-15T00:42:36;9.50;79.80
70734;DHT22;58320;48.804;9.252;2022-11-15T00:45:02;9.50;79.80
70734;DHT22;58320;48.804;9.252;2022-11-15T00:47:28;9.50;80.20
70734;DHT22;58320;48.804;9.252;2022-11-15T00:49:53;9.50;80.40
70734;DHT22;58320;48.804;9.252;2022-11-15T00:52:19;9.40;80.50
70734;DHT22;58320;48.804;9.252;2022-11-15T00:54:45;9.40;80.40
70734;DHT22;58320;48.804;9.252;2022-11-15T00:57:11;9.40;79.90
70734;DHT22;58320;48.804;9.252;2022-11-15T00:59:36;9.40;79.30
70734;DHT22;58320;48.804;9.252;2022-11-15T01:02:02;9.50;79.40
70734;DHT22;58320;48.804;9.252;2022-11-15T01:04:28;9.40;79.60
70734;DHT22;58320;48.804;9.252;2022-11-15T01:06:54;9.40;79.90
70734;DHT22;58320;48.804;9.252;2022-11-15T01:09:20;9.40;80.10
70734;DHT22;58320;48.804;9.252;2022-11-15T01:11:46;9.30;80.80
70734;DHT22;58320;48.804;9.252;2022-11-15T01:14:11;9.30;80.80
70734;DHT22;58320;48.804;9.252;2022-11-15T01:16:37;9.20;81.30
70734;DHT22;58320;48.804;9.252;2022-11-15T01:19:03;9.10;81.60
70734;DHT22;58320;48.804;9.252;2022-11-15T01:21:29;9.10;82.10
70734;DHT22;58320;48.804;9.252;2022-11-15T01:23:56;9.00;82.00
70734;DHT22;58320;48.804;9.252;2022-11-15T01:26:23;8.90;82.70
70734;DHT22;58320;48.804;9.252;2022-11-15T01:28:50;8.90;82.50
70734;DHT22;58320;48.804;9.252;2022-11-15T01:31:18;8.80;82.60
70734;DHT22;58320;48.804;9.252;2022-11-15T01:33:45;8.80;82.60
70734;DHT22;58320;48.804;9.252;2022-11-15T01:36:17;8.80;82.40
70734;DHT22;58320;48.804;9.252;2022-11-15T01:38:44;8.70;82.50
70734;DHT22;58320;48.804;9.252;2022-11-15T01:41:22;8.60;83.00
70734;DHT22;58320;48.804;9.252;2022-11-15T01:43:52;8.60;83.00
70734;DHT22;58320;48.804;9.252;2022-11-15T01:46:34;8.50;83.50
70734;DHT22;58320;48.804;9.252;2022-11-15T01:49:05;8.40;84.00
70734;DHT22;58320;48.804;9.252;2022-11-15T01:51:46;8.30;84.60
70734;DHT22;58320;48.804;9.252;2022-11-15T01:54:15;8.10;84.90
70734;DHT22;58320;48.804;9.252;2022-11-15T01:57:04;8.00;85.90
70734;DHT22;58320;48.804;9.252;2022-11-15T01:59:33;7.90;87.00
70734;DHT22;58320;48.804;9.252;2022-11-15T02:01:59;7.80;87.00
70734;DHT22;58320;48.804;9.252;2022-11-15T02:04:43;7.80;87.40
70734;DHT22;58320;48.804;9.252;2022-11-15T02:07:13;7.70;88.20
70734;DHT22;58320;48.804;9.252;2022-11-15T02:09:43;7.70;88.40
70734;DHT22;58320;48.804;9.252;2022-11-15T02:12:10;7.60;88.40
70734;DHT22;58320;48.804;9.252;2022-11-15T02:14:42;7.70;88.80
70734;DHT22;58320;48.804;9.252;2022-11-15T02:23:50;7.90;87.70
70734;DHT22;58320;48.804;9.252;2022-11-15T02:27:18;8.00;87.30
70734;DHT22;58320;48.804;9.252;2022-11-15T02:30:00;8.00;87.30
70734;DHT22;58320;48.804;9.252;2022-11-15T02:35:34;8.10;86.80
70734;DHT22;58320;48.804;9.252;2022-11-15T02:38:26;8.10;86.40
70734;DHT22;58320;48.804;9.252;2022-11-15T02:41:19;8.20;86.20
70734;DHT22;58320;48.804;9.252;2022-11-15T02:44:02;8.30;85.70
70734;DHT22;58320;48.804;9.252;2022-11-15T02:46:35;8.30;85.70
70734;DHT22;58320;48.804;9.252;2022-11-15T02:49:26;8.30;85.40
70734;DHT22;58320;48.804;9.252;2022-11-15T02:51:55;8.30;85.50
70734;DHT22;58320;48.804;9.252;2022-11-15T02:54:32;8.30;85.30
70734;DHT22;58320;48.804;9.252;2022-11-15T02:57:04;8.30;85.20
70734;DHT22;58320;48.804;9.252;2022-11-15T02:59:52;8.30;85.40
70734;DHT22;58320;48.804;9.252;2022-11-15T03:02:32;8.30;85.60
70734;DHT22;58320;48.804;9.252;2022-11-15T03:05:17;8.30;85.80
70734;DHT22;58320;48.804;9.252;2022-11-15T03:10:31;8.30;85.90
70734;DHT22;58320;48.804;9.252;2022-11-15T03:13:34;8.20;86.00
70734;DHT22;58320;48.804;9.252;2022-11-15T03:16:04;8.20;86.10
70734;DHT22;58320;48.804;9.252;2022-11-15T03:18:43;8.10;86.70
70734;DHT22;58320;48.804;9.252;2022-11-15T03:21:14;8.00;87.60
70734;DHT22;58320;48.804;9.252;2022-11-15T03:23:41;7.90;88.10
70734;DHT22;58320;48.804;9.252;2022-11-15T03:26:11;7.70;89.00
70734;DHT22;58320;48.804;9.252;2022-11-15T03:28:42;7.70;89.70
70734;DHT22;58320;48.804;9.252;2022-11-15T03:31:19;7.60;90.00
70734;DHT22;58320;48.804;9.252;2022-11-15T03:34:08;7.60;89.90
70734;DHT22;58320;48.804;9.252;2022-11-15T03:36:37;7.60;89.80
70734;DHT22;58320;48.804;9.252;2022-11-15T03:39:06;7.50;89.90
70734;DHT22;58320;48.804;9.252;2022-11-15T03:42:03;7.50;90.00
70734;DHT22;58320;48.804;9.252;2022-11-15T03:47:34;7.30;90.30
70734;DHT22;58320;48.804;9.252;2022-11-15T03:50:14;7.20;91.00
70734;DHT22;58320;48.804;9.252;2022-11-15T03:52:43;7.10;92.30
70734;DHT22;58320;48.804;9.252;2022-11-15T03:55:14;7.10;93.30
70734;DHT22;58320;48.804;9.252;2022-11-15T03:57:42;7.20;93.40
70734;DHT22;58320;48.804;9.252;2022-11-15T04:00:09;7.30;92.90
70734;DHT22;58320;48.804;9.252;2022-11-15T04:02:35;7.50;91.70
70734;DHT22;58320;48.804;9.252;2022-11-15T04:05:01;7.60;90.80
70734;DHT22;58320;48.804;9.252;2022-11-15T04:07:27;7.70;90.50
70734;DHT22;58320;48.804;9.252;2022-11-15T04:09:52;7.60;90.40
70734;DHT22;58320;48.804;9.252;2022-11-15T04:12:36;7.60;90.50
70734;DHT22;58320;48.804;9.252;2022-11-15T04:15:08;7.60;90.40
70734;DHT22;58320;48.804;9.252;2022-11-15T04:17:53;7.60;90.40
70734;DHT22;58320;48.804;9.252;2022-11-15T04:20:30;7.60;90.50
70734;DHT22;58320;48.804;9.252;2022-11-15T04:23:17;7.50;90.60
70734;DHT22;58320;48.804;9.252;2022-11-15T04:26:18;7.40;91.00
70734;DHT22;58320;48.804;9.252;2022-11-15T04:28:46;7.30;91.50
70734;DHT22;58320;48.804;9.252;2022-11-15T04:31:31;7.20;91.80
70734;DHT22;58320;48.804;9.252;2022-11-15T04:33:57;7.10;92.40
70734;DHT22;58320;48.804;9.252;2022-11-15T04:36:23;7.10;92.80
70734;DHT22;58320;48.804;9.252;2022-11-15T04:39:07;7.10;93.30
70734;DHT22;58320;48.804;9.252;2022-11-15T04:41:33;7.10;93.60
70734;DHT22;58320;48.804;9.252;2022-11-15T04:43:59;7.10;93.30
70734;DHT22;58320;48.804;9.252;2022-11-15T04:46:25;7.00;93.30
70734;DHT22;58320;48.804;9.252;2022-11-15T04:48:52;7.00;93.50
70734;DHT22;58320;48.804;9.252;2022-11-15T04:51:19;7.00;93.80
70734;DHT22;58320;48.804;9.252;2022-11-15T04:53:45;7.00;94.40
70734;DHT22;58320;48.804;9.252;2022-11-15T04:56:11;7.00;94.90
70734;DHT22;58320;48.804;9.252;2022-11-15T04:58:37;7.00;94.80
70734;DHT22;58320;48.804;9.252;2022-11-15T05:01:10;7.00;95.00
70734;DHT22;58320;48.804;9.252;2022-11-15T05:03:37;7.00;94.70
70734;DHT22;58320;48.804;9.252;2022-11-15T05:06:22;7.00;94.50
70734;DHT22;58320;48.804;9.252;2022-11-15T05:08:47;7.00;94.80
70734;DHT22;58320;48.804;9.252;2022-11-15T05:11:13;6.90;94.60
70734;DHT22;58320;48.804;9.252;2022-11-15T05:13:39;6.90;95.30
70734;DHT22;58320;48.804;9.252;2022-11-15T05:16:05;6.90;95.50
70734;DHT22;58320;48.804;9.252;2022-11-15T05:18:31;7.00;95.30
70734;DHT22;58320;48.804;9.252;2022-11-15T05:21:13;7.10;95.10
70734;DHT22;58320;48.804;9.252;2022-11-15T05:23:40;7.20;94.30
70734;DHT22;58320;48.804;9.252;2022-11-15T05:26:08;7.20;93.90
70734;DHT22;58320;48.804;9.252;2022-11-15T05:28:35;7.20;93.50
70734;DHT22;58320;48.804;9.252;2022-11-15T05:31:08;7.10;93.60
70734;DHT22;58320;48.804;9.252;2022-11-15T05:33:38;7.10;93.90
70734;DHT22;58320;48.804;9.252;2022-11-15T05:39:05;6.90;94.30
70734;DHT22;58320;48.804;9.252;2022-11-15T05:41:56;6.80;94.80
70734;DHT22;58320;48.804;9.252;2022-11-15T05:44:31;6.80;95.10
70734;DHT22;58320;48.804;9.252;2022-11-15T05:46:57;6.80;95.40
70734;DHT22;58320;48.804;9.252;2022-11-15T05:49:26;6.80;95.30
70734;DHT22;58320;48.804;9.252;2022-11-15T05:51:56;6.90;95.00
70734;DHT22;58320;48.804;9.252;2022-11-15T05:54:23;6.90;94.80
70734;DHT22;58320;48.804;9.252;2022-11-15T05:56:50;6.90;94.60
70734;DHT22;58320;48.804;9.252;2022-11-15T05:59:17;6.90;94.60
70734;DHT22;58320;48.804;9.252;2022-11-15T06:01:43;6.90;94.60
70734;DHT22;58320;48.804;9.252;2022-11-15T06:04:09;6.90;94.70
70734;DHT22;58320;48.804;9.252;2022-11-15T06:06:34;6.90;94.50
70734;DHT22;58320;48.804;9.252;2022-11-15T06:09:00;6.90;94.30
70734;DHT22;58320;48.804;9.252;2022-11-15T06:11:26;6.90;94.00
70734;DHT22;58320;48.804;9.252;2022-11-15T06:13:52;6.90;94.10
70734;DHT22;58320;48.804;9.252;2022-11-15T06:16:18;6.90;94.30
70734;DHT22;58320;48.804;9.252;2022-11-15T06:18:44;6.90;94.50
70734;DHT22;58320;48.804;9.252;2022-11-15T06:21:09;6.90;94.40
70734;DHT22;58320;48.804;9.252;2022-11-15T06:23:35;6.90;94.30
70734;DHT22;58320;48.804;9.252;2022-11-15T06:26:02;6.90;94.20
70734;DHT22;58320;48.804;9.252;2022-11-15T06:28:29;6.90;94.00
70734;DHT22;58320;48.804;9.252;2022-11-15T06:31:01;6.90;93.90
70734;DHT22;58320;48.804;9.252;2022-11-15T06:33:27;6.90;94.10
70734;DHT22;58320;48.804;9.252;2022-11-15T06:35:53;6.90;93.90
70734;DHT22;58320;48.804;9.252;2022-11-15T06:38:19;6.90;93.80
70734;DHT22;58320;48.804;9.252;2022-11-15T06:40:45;7.00;93.70
70734;DHT22;58320;48.804;9.252;2022-11-15T06:43:11;7.00;93.70
70734;DHT22;58320;48.804;9.252;2022-11-15T06:45:36;7.00;93.50
70734;DHT22;58320;48.804;9.252;2022-11-15T06:48:02;7.00;93.10
70734;DHT22;58320;48.804;9.252;2022-11-15T06:50:28;7.10;92.90
70734;DHT22;58320;48.804;9.252;2022-11-15T06:52:54;7.10;92.40
70734;DHT22;58320;48.804;9.252;2022-11-15T06:55:20;7.10;92.10
70734;DHT22;58320;48.804;9.252;2022-11-15T06:57:52;7.20;91.80
70734;DHT22;58320;48.804;9.252;2022-11-15T07:00:20;7.10;91.60
70734;DHT22;58320;48.804;9.252;2022-11-15T07:02:47;7.10;91.60
70734;DHT22;58320;48.804;9.252;2022-11-15T07:05:13;7.10;91.50
70734;DHT22;58320;48.804;9.252;2022-11-15T07:07:40;7.20;91.20
70734;DHT22;58320;48.804;9.252;2022-11-15T07:10:06;7.20;90.70
70734;DHT22;58320;48.804;9.252;2022-11-15T07:12:33;7.30;90.00
70734;DHT22;58320;48.804;9.252;2022-11-15T07:14:59;7.40;89.50
70734;DHT22;58320;48.804;9.252;2022-11-15T07:17:29;7.40;89.30
70734;DHT22;58320;48.804;9.252;2022-11-15T07:19:56;7.50;88.60
70734;DHT22;58320;48.804;9.252;2022-11-15T07:22:22;7.60;87.50
70734;DHT22;58320;48.804;9.252;2022-11-15T07:24:49;7.70;87.20
70734;DHT22;58320;48.804;9.252;2022-11-15T07:27:15;7.70;86.70
70734;DHT22;58320;48.804;9.252;2022-11-15T07:29:45;7.80;86.80
70734;DHT22;58320;48.804;9.252;2022-11-15T07:32:11;7.90;86.00
70734;DHT22;58320;48.804;9.252;2022-11-15T07:34:37;8.00;85.00
70734;DHT22;58320;48.804;9.252;2022-11-15T07:37:03;8.20;84.50
70734;DHT22;58320;48.804;9.252;2022-11-15T07:39:29;8.30;83.60
70734;DHT22;58320;48.804;9.252;2022-11-15T07:41:55;8.40;83.20
70734;DHT22;58320;48.804;9.252;2022-11-15T07:44:40;8.50;82.60
70734;DHT22;58320;48.804;9.252;2022-11-15T07:47:06;8.70;82.20
70734;DHT22;58320;48.804;9.252;2022-11-15T07:49:32;8.90;80.70
70734;DHT22;58320;48.804;9.252;2022-11-15T07:51:58;9.10;79.80
70734;DHT22;58320;48.804;9.252;2022-11-15T07:54:23;9.20;79.90
70734;DHT22;58320;48.804;9.252;2022-11-15T07:56:49;9.50;78.90
70734;DHT22;58320;48.804;9.252;2022-11-15T07:59:15;9.60;77.80
70734;DHT22;58320;48.804;9.252;2022-11-15T08:01:41;9.80;77.00
70734;DHT22;58320;48.804;9.252;2022-11-15T08:04:06;9.90;76.90
70734;DHT22;58320;48.804;9.252;2022-11-15T08:06:32;9.90;76.60
70734;DHT22;58320;48.804;9.252;2022-11-15T08:08:58;9.90;77.00
70734;DHT22;58320;48.804;9.252;2022-11-15T08:11:24;10.10;77.60
70734;DHT22;58320;48.804;9.252;2022-11-15T08:13:50;10.40;77.00
70734;DHT22;58320;48.804;9.252;2022-11-15T08:16:15;10.70;75.90
70734;DHT22;58320;48.804;9.252;2022-11-15T08:18:41;10.90;75.20
70734;DHT22;58320;48.804;9.252;2022-11-15T08:21:09;11.00;74.30
70734;DHT22;58320;48.804;9.252;2022-11-15T08:23:35;11.10;73.90
70734;DHT22;58320;48.804;9.252;2022-11-15T08:26:02;11.20;73.90
70734;DHT22;58320;48.804;9.252;2022-11-15T08:28:29;11.20;73.10
70734;DHT22;58320;48.804;9.252;2022-11-15T08:30:55;11.40;72.80
70734;DHT22;58320;48.804;9.252;2022-11-15T08:33:21;11.40;72.60
70734;DHT22;58320;48.804;9.252;2022-11-15T08:35:47;11.30;72.40
70734;DHT22;58320;48.804;9.252;2022-11-15T08:38:14;11.20;72.30
70734;DHT22;58320;48.804;9.252;2022-11-15T08:40:40;11.10;72.70
70734;DHT22;58320;48.804;9.252;2022-11-15T08:43:06;11.10;73.30
70734;DHT22;58320;48.804;9.252;2022-11-15T08:45:34;11.10;73.20
70734;DHT22;58320;48.804;9.252;2022-11-15T08:48:02;11.20;73.20
70734;DHT22;58320;48.804;9.252;2022-11-15T08:50:28;11.30;72.50
70734;DHT22;58320;48.804;9.252;2022-11-15T08:52:54;11.20;72.60
70734;DHT22;58320;48.804;9.252;2022-11-15T08:55:20;11.30;71.90
70734;DHT22;58320;48.804;9.252;2022-11-15T08:57:45;11.30;71.60
70734;DHT22;58320;48.804;9.252;2022-11-15T09:00:12;11.50;72.50
70734;DHT22;58320;48.804;9.252;2022-11-15T09:02:39;11.70;70.40
70734;DHT22;58320;48.804;9.252;2022-11-15T09:05:06;11.90;71.10
70734;DHT22;58320;48.804;9.252;2022-11-15T09:07:32;12.20;69.90
70734;DHT22;58320;48.804;9.252;2022-11-15T09:09:58;12.50;68.30
70734;DHT22;58320;48.804;9.252;2022-11-15T09:12:24;12.90;67.90
70734;DHT22;58320;48.804;9.252;2022-11-15T09:14:51;13.40;67.40
70734;DHT22;58320;48.804;9.252;2022-11-15T09:17:16;13.70;66.30
70734;DHT22;58320;48.804;9.252;2022-11-15T09:19:42;14.10;64.70
70734;DHT22;58320;48.804;9.252;2022-11-15T09:22:08;14.20;63.90
70734;DHT22;58320;48.804;9.252;2022-11-15T09:24:35;14.20;63.00
70734;DHT22;58320;48.804;9.252;2022-11-15T09:27:00;14.30;63.20
70734;DHT22;58320;48.804;9.252;2022-11-15T09:29:26;14.30;63.30
70734;DHT22;58320;48.804;9.252;2022-11-15T09:31:52;14.40;63.20
70734;DHT22;58320;48.804;9.252;2022-11-15T09:34:18;14.40;62.30
70734;DHT22;58320;48.804;9.252;2022-11-15T09:36:44;14.00;62.50
70734;DHT22;58320;48.804;9.252;2022-11-15T09:39:10;13.80;63.30
70734;DHT22;58320;48.804;9.252;2022-11-15T09:41:50;13.80;63.10
70734;DHT22;58320;48.804;9.252;2022-11-15T09:49:53;14.40;60.30
70734;DHT22;58320;48.804;9.252;2022-11-15T09:52:21;14.50;60.40
70734;DHT22;58320;48.804;9.252;2022-11-15T09:54:49;14.70;60.10
70734;DHT22;58320;48.804;9.252;2022-11-15T09:57:33;14.70;58.90
70734;DHT22;58320;48.804;9.252;2022-11-15T10:05:46;14.90;59.90
70734;DHT22;58320;48.804;9.252;2022-11-15T10:11:03;15.40;58.00
70734;DHT22;58320;48.804;9.252;2022-11-15T10:13:34;15.60;58.30
70734;DHT22;58320;48.804;9.252;2022-11-15T10:22:33;15.40;58.00
70734;DHT22;58320;48.804;9.252;2022-11-15T10:27:39;14.60;57.30
70734;DHT22;58320;48.804;9.252;2022-11-15T10:30:15;14.30;59.10
70734;DHT22;58320;48.804;9.252;2022-11-15T10:32:45;14.20;59.20
70734;DHT22;58320;48.804;9.252;2022-11-15T10:35:28;14.10;59.40
70734;DHT22;58320;48.804;9.252;2022-11-15T10:38:09;14.10;60.50
70734;DHT22;58320;48.804;9.252;2022-11-15T10:40:38;14.10;59.90
70734;DHT22;58320;48.804;9.252;2022-11-15T10:43:17;14.20;59.80
70734;DHT22;58320;48.804;9.252;2022-11-15T10:45:45;14.20;59.70
70734;DHT22;58320;48.804;9.252;2022-11-15T10:50:39;14.10;59.40
70734;DHT22;58320;48.804;9.252;2022-11-15T10:55:56;14.20;60.10
70734;DHT22;58320;48.804;9.252;2022-11-15T10:58:51;14.30;60.30
70734;DHT22;58320;48.804;9.252;2022-11-15T11:01:22;14.40;59.30
70734;DHT22;58320;48.804;9.252;2022-11-15T11:04:18;14.40;59.60
70734;DHT22;58320;48.804;9.252;2022-11-15T11:06:51;14.40;59.00
70734;DHT22;58320;48.804;9.252;2022-11-15T11:09:36;14.30;59.00
70734;DHT22;58320;48.804;9.252;2022-11-15T11:12:05;14.10;60.30
70734;DHT22;58320;48.804;9.252;2022-11-15T11:14:36;14.10;60.40
70734;DHT22;58320;48.804;9.252;2022-11-15T11:25:56;13.70;61.20
70734;DHT22;58320;48.804;9.252;2022-11-15T11:34:19;14.00;62.00
70734;DHT22;58320;48.804;9.252;2022-11-15T11:37:11;14.10;61.10
70734;DHT22;58320;48.804;9.252;2022-11-15T11:39:50;14.20;60.80
70734;DHT22;58320;48.804;9.252;2022-11-15T11:45:30;14.50;61.00
70734;DHT22;58320;48.804;9.252;2022-11-15T11:50:40;14.60;59.90
70734;DHT22;58320;48.804;9.252;2022-11-15T11:53:15;14.50;61.30
70734;DHT22;58320;48.804;9.252;2022-11-15T11:55:56;14.50;61.00
70734;DHT22;58320;48.804;9.252;2022-11-15T11:58:43;14.70;61.60
70734;DHT22;58320;48.804;9.252;2022-11-15T12:01:28;14.60;60.10
70734;DHT22;58320;48.804;9.252;2022-11-15T12:04:11;14.60;59.90
70734;DHT22;58320;48.804;9.252;2022-11-15T12:07:00;14.50;60.50
70734;DHT22;58320;48.804;9.252;2022-11-15T12:09:50;14.70;60.90
70734;DHT22;58320;48.804;9.252;2022-11-15T12:12:39;14.70;59.90
70734;DHT22;58320;48.804;9.252;2022-11-15T12:17:41;15.30;59.00
70734;DHT22;58320;48.804;9.252;2022-11-15T12:20:16;15.50;57.60
70734;DHT22;58320;48.804;9.252;2022-11-15T12:25:41;15.60;58.80
70734;DHT22;58320;48.804;9.252;2022-11-15T12:33:45;15.10;60.20
70734;DHT22;58320;48.804;9.252;2022-11-15T12:39:07;14.90;61.20
70734;DHT22;58320;48.804;9.252;2022-11-15T12:42:34;14.70;61.70
70734;DHT22;58320;48.804;9.252;2022-11-15T12:59:49;14.30;63.20
70734;DHT22;58320;48.804;9.252;2022-11-15T13:02:42;14.30;63.00
70734;DHT22;58320;48.804;9.252;2022-11-15T13:12:54;14.20;63.00
70734;DHT22;58320;48.804;9.252;2022-11-15T13:20:49;14.20;63.50
70734;DHT22;58320;48.804;9.252;2022-11-15T13:23:15;14.20;63.50
70734;DHT22;58320;48.804;9.252;2022-11-15T13:28:46;14.20;63.70
70734;DHT22;58320;48.804;9.252;2022-11-15T13:33:52;14.10;64.00
70734;DHT22;58320;48.804;9.252;2022-11-15T13:36:25;14.10;64.10
70734;DHT22;58320;48.804;9.252;2022-11-15T13:39:05;14.00;63.70
70734;DHT22;58320;48.804;9.252;2022-11-15T13:41:46;14.00;64.30
70734;DHT22;58320;48.804;9.252;2022-11-15T13:44:22;14.00;64.70
70734;DHT22;58320;48.804;9.252;2022-11-15T13:47:05;14.00;64.60
70734;DHT22;58320;48.804;9.252;2022-11-15T13:49:32;14.10;64.60
70734;DHT22;58320;48.804;9.252;2022-11-15T13:52:01;14.20;64.40
70734;DHT22;58320;48.804;9.252;2022-11-15T14:02:56;14.30;64.10
70734;DHT22;58320;48.804;9.252;2022-11-15T14:05:24;14.30;64.50
70734;DHT22;58320;48.804;9.252;2022-11-15T14:08:02;14.20;63.00
70734;DHT22;58320;48.804;9.252;2022-11-15T14:10:36;14.10;63.80
70734;DHT22;58320;48.804;9.252;2022-11-15T14:13:04;14.00;63.80
70734;DHT22;58320;48.804;9.252;2022-11-15T14:15:37;13.80;64.90
70734;DHT22;58320;48.804;9.252;2022-11-15T14:18:04;13.70;64.70
70734;DHT22;58320;48.804;9.252;2022-11-15T14:20:35;13.60;65.00
70734;DHT22;58320;48.804;9.252;2022-11-15T14:23:18;13.50;66.00
70734;DHT22;58320;48.804;9.252;2022-11-15T14:25:56;13.50;67.70
70734;DHT22;58320;48.804;9.252;2022-11-15T14:30:52;13.30;67.80
70734;DHT22;58320;48.804;9.252;2022-11-15T14:35:58;13.10;69.00
70734;DHT22;58320;48.804;9.252;2022-11-15T14:38:37;13.10;69.40
70734;DHT22;58320;48.804;9.252;2022-11-15T14:41:03;13.10;69.70
70734;DHT22;58320;48.804;9.252;2022-11-15T14:43:29;13.10;69.80
70734;DHT22;58320;48.804;9.252;2022-11-15T14:45:55;13.10;70.00
70734;DHT22;58320;48.804;9.252;2022-11-15T14:48:21;13.10;70.40
70734;DHT22;58320;48.804;9.252;2022-11-15T14:50:47;13.00;70.40
70734;DHT22;58320;48.804;9.252;2022-11-15T14:53:17;13.00;71.10
70734;DHT22;58320;48.804;9.252;2022-11-15T14:55:44;12.90;71.40
70734;DHT22;58320;48.804;9.252;2022-11-15T14:58:10;12.80;72.50
70734;DHT22;58320;48.804;9.252;2022-11-15T15:00:38;12.70;71.90
70734;DHT22;58320;48.804;9.252;2022-11-15T15:03:06;12.70;72.90
70734;DHT22;58320;48.804;9.252;2022-11-15T15:05:41;12.70;73.30
70734;DHT22;58320;48.804;9.252;2022-11-15T15:08:08;12.60;72.70
70734;DHT22;58320;48.804;9.252;2022-11-15T15:10:43;12.70;72.80
70734;DHT22;58320;48.804;9.252;2022-11-15T15:15:44;12.70;71.40
70734;DHT22;58320;48.804;9.252;2022-11-15T15:18:09;12.60;72.20
70734;DHT22;58320;48.804;9.252;2022-11-15T15:20:38;12.60;72.20
70734;DHT22;58320;48.804;9.252;2022-11-15T15:23:08;12.60;72.70
70734;DHT22;58320;48.804;9.252;2022-11-15T15:25:40;12.50;73.10
70734;DHT22;58320;48.804;9.252;2022-11-15T15:28:07;12.50;73.60
70734;DHT22;58320;48.804;9.252;2022-11-15T15:30:33;12.40;73.70
70734;DHT22;58320;48.804;9.252;2022-11-15T15:32:58;12.40;73.90
70734;DHT22;58320;48.804;9.252;2022-11-15T15:35:31;12.30;74.10
70734;DHT22;58320;48.804;9.252;2022-11-15T15:37:58;12.30;74.40
70734;DHT22;58320;48.804;9.252;2022-11-15T15:40:25;12.20;75.20
70734;DHT22;58320;48.804;9.252;2022-11-15T15:42:52;12.10;76.00
70734;DHT22;58320;48.804;9.252;2022-11-15T15:45:19;12.10;75.90
70734;DHT22;58320;48.804;9.252;2022-11-15T15:47:45;12.00;76.10
70734;DHT22;58320;48.804;9.252;2022-11-15T15:52:48;12.00;77.00
70734;DHT22;58320;48.804;9.252;2022-11-15T15:55:15;12.00;76.60
70734;DHT22;58320;48.804;9.252;2022-11-15T15:57:41;12.00;75.10
70734;DHT22;58320;48.804;9.252;2022-11-15T16:00:07;12.10;75.00
70734;DHT22;58320;48.804;9.252;2022-11-15T16:02:34;12.10;75.30
70734;DHT22;58320;48.804;9.252;2022-11-15T16:04:59;12.10;75.50
70734;DHT22;58320;48.804;9.252;2022-11-15T16:07:25;12.00;75.70
70734;DHT22;58320;48.804;9.252;2022-11-15T16:09:53;12.00;76.10
70734;DHT22;58320;48.804;9.252;2022-11-15T16:12:35;12.00;75.70
70734;DHT22;58320;48.804;9.252;2022-11-15T16:15:01;12.00;74.80
70734;DHT22;58320;48.804;9.252;2022-11-15T16:17:35;12.00;74.70
70734;DHT22;58320;48.804;9.252;2022-11-15T16:20:04;12.10;74.30
70734;DHT22;58320;48.804;9.252;2022-11-15T16:22:31;12.20;73.00
70734;DHT22;58320;48.804;9.252;2022-11-15T16:24:57;12.20;73.50
70734;DHT22;58320;48.804;9.252;2022-11-15T16:27:23;12.20;73.20
70734;DHT22;58320;48.804;9.252;2022-11-15T16:29:49;12.20;73.50
70734;DHT22;58320;48.804;9.252;2022-11-15T16:32:15;12.20;73.60
70734;DHT22;58320;48.804;9.252;2022-11-15T16:34:41;12.20;73.70
70734;DHT22;58320;48.804;9.252;2022-11-15T16:37:34;12.20;73.30
70734;DHT22;58320;48.804;9.252;2022-11-15T16:39:59;12.10;73.40
70734;DHT22;58320;48.804;9.252;2022-11-15T16:42:25;12.10;73.70
70734;DHT22;58320;48.804;9.252;2022-11-15T16:44:51;12.20;73.60
70734;DHT22;58320;48.804;9.252;2022-11-15T16:47:18;12.20;73.50
70734;DHT22;58320;48.804;9.252;2022-11-15T16:49:47;12.20;73.50
70734;DHT22;58320;48.804;9.252;2022-11-15T16:52:13;12.20;73.60
70734;DHT22;58320;48.804;9.252;2022-11-15T16:54:39;12.20;73.50
70734;DHT22;58320;48.804;9.252;2022-11-15T16:57:05;12.20;73.20
70734;DHT22;58320;48.804;9.252;2022-11-15T16:59:30;12.20;73.40
70734;DHT22;58320;48.804;9.252;2022-11-15T17:01:58;12.20;74.40
70734;DHT22;58320;48.804;9.252;2022-11-15T17:04:23;12.10;74.60
70734;DHT22;58320;48.804;9.252;2022-11-15T17:06:52;12.10;75.30
70734;DHT22;58320;48.804;9.252;2022-11-15T17:09:19;12.00;75.90
70734;DHT22;58320;48.804;9.252;2022-11-15T17:11:49;12.00;76.00
70734;DHT22;58320;48.804;9.252;2022-11-15T17:14:15;12.00;76.10
70734;DHT22;58320;48.804;9.252;2022-11-15T17:16:41;12.00;75.70
70734;DHT22;58320;48.804;9.252;2022-11-15T17:19:17;12.00;76.70
70734;DHT22;58320;48.804;9.252;2022-11-15T17:21:45;12.00;76.40
70734;DHT22;58320;48.804;9.252;2022-11-15T17:24:13;12.00;75.20
70734;DHT22;58320;48.804;9.252;2022-11-15T17:26:39;12.00;75.90
70734;DHT22;58320;48.804;9.252;2022-11-15T17:29:07;12.00;76.30
70734;DHT22;58320;48.804;9.252;2022-11-15T17:31:34;11.90;76.30
70734;DHT22;58320;48.804;9.252;2022-11-15T17:34:01;11.90;76.40
70734;DHT22;58320;48.804;9.252;2022-11-15T17:36:28;11.90;75.90
70734;DHT22;58320;48.804;9.252;2022-11-15T17:38:54;11.90;74.90
70734;DHT22;58320;48.804;9.252;2022-11-15T17:41:20;12.10;73.40
70734;DHT22;58320;48.804;9.252;2022-11-15T17:43:46;12.10;73.70
70734;DHT22;58320;48.804;9.252;2022-11-15T17:46:15;12.10;74.30
70734;DHT22;58320;48.804;9.252;2022-11-15T17:48:42;12.10;75.10
70734;DHT22;58320;48.804;9.252;2022-11-15T17:51:11;12.10;75.20
70734;DHT22;58320;48.804;9.252;2022-11-15T17:53:41;12.00;75.50
70734;DHT22;58320;48.804;9.252;2022-11-15T17:56:13;12.00;75.80
70734;DHT22;58320;48.804;9.252;2022-11-15T17:58:52;12.00;76.20
70734;DHT22;58320;48.804;9.252;2022-11-15T18:01:30;12.00;76.00
70734;DHT22;58320;48.804;9.252;2022-11-15T18:04:02;12.10;75.40
70734;DHT22;58320;48.804;9.252;2022-11-15T18:06:31;12.10;74.90
70734;DHT22;58320;48.804;9.252;2022-11-15T18:08:58;12.20;74.40
70734;DHT22;58320;48.804;9.252;2022-11-15T18:11:27;12.20;74.10